Time;durP1;ratioP1;P1;durP2;ratioP2;P2;SDS_P1;SDS_P2;PMS_P1;PMS_P2;Temp;Humidity;BMP_temperature;BMP_pressure;BME280_temperature;BME280_humidity;BME280_pressure;Samples;Min_cycle;Max_cycle;Signal;HPM_P1;HPM_P2
2021/10/25 00:01:16;;;;;;;3.63;1.70;;;20.30;56.90;;;;;;5059919;28;20040;-64
2021/10/25 00:03:42;;;;;;;2.53;1.67;;;20.30;57.00;;;;;;5060304;28;20029;-65
2021/10/25 00:06:08;;;;;;;2.40;1.48;;;20.30;57.00;;;;;;5060335;28;20021;-64
2021/10/25 00:08:34;;;;;;;3.85;1.40;;;20.30;57.10;;;;;;5060081;28;20108;-64
2021/10/25 00:11:00;;;;;;;4.50;1.70;;;20.30;57.20;;;;;;5060168;28;20086;-64
2021/10/25 00:13:26;;;;;;;2.85;1.55;;;20.30;57.10;;;;;;5059863;28;20021;-64
2021/10/25 00:15:52;;;;;;;4.38;1.67;;;20.30;57.10;;;;;;5059915;28;20028;-64
2021/10/25 00:18:18;;;;;;;5.13;1.73;;;20.30;57.10;;;;;;5059855;28;20025;-64
2021/10/25 00:20:44;;;;;;;2.75;1.40;;;20.20;57.10;;;;;;5059711;28;20028;-64
2021/10/25 00:23:10;;;;;;;4.40;1.98;;;20.20;57.10;;;;;;5060153;28;20017;-64
2021/10/25 00:25:35;;;;;;;3.63;1.73;;;20.20;57.20;;;;;;5059916;28;20530;-64
2021/10/25 00:28:01;;;;;;;4.72;1.67;;;20.20;57.10;;;;;;5059878;28;20461;-64
2021/10/25 00:30:27;;;;;;;3.97;1.90;;;20.20;57.20;;;;;;5059656;28;20021;-64
2021/10/25 00:32:53;;;;;;;3.70;1.50;;;20.20;57.20;;;;;;5059580;28;20025;-64
2021/10/25 00:35:20;;;;;;;3.75;1.48;;;20.20;57.20;;;;;;5059905;28;20024;-64
2021/10/25 00:37:46;;;;;;;4.57;1.80;;;20.20;57.30;;;;;;5059499;28;20108;-64
2021/10/25 00:40:12;;;;;;;4.43;1.52;;;20.10;57.20;;;;;;5059481;28;20033;-64
2021/10/25 00:42:38;;;;;;;3.50;1.50;;;20.10;57.30;;;;;;5059369;28;20020;-64
2021/10/25 00:45:04;;;;;;;3.85;1.40;;;20.10;57.40;;;;;;5059645;28;20096;-64
2021/10/25 00:47:30;;;;;;;4.00;1.50;;;20.10;57.40;;;;;;5059220;28;20404;-64
2021/10/25 00:49:56;;;;;;;4.95;1.30;;;20.10;57.40;;;;;;5059325;28;20075;-64
2021/10/25 00:52:22;;;;;;;4.28;1.40;;;20.10;57.40;;;;;;5059248;28;20473;-64
2021/10/25 00:54:48;;;;;;;3.05;1.48;;;20.10;57.40;;;;;;5059404;28;20048;-64
2021/10/25 00:57:13;;;;;;;3.17;1.45;;;20.10;57.40;;;;;;5058900;28;20071;-64
2021/10/25 00:59:39;;;;;;;4.15;1.40;;;20.10;57.40;;;;;;5059192;28;20033;-65
2021/10/25 01:02:05;;;;;;;4.22;1.70;;;20.10;57.40;;;;;;5058917;28;20469;-65
2021/10/25 01:04:31;;;;;;;3.97;1.27;;;20.10;57.40;;;;;;5059406;28;20017;-64
2021/10/25 01:06:59;;;;;;;6.18;1.70;;;20.00;57.40;;;;;;5058978;28;20068;-64
2021/10/25 01:09:25;;;;;;;3.70;1.60;;;20.00;57.50;;;;;;5058830;28;20096;-64
2021/10/25 01:11:52;;;;;;;3.60;1.33;;;20.00;57.50;;;;;;5058836;28;20017;-64
2021/10/25 01:14:18;;;;;;;4.35;1.50;;;20.00;57.40;;;;;;5058747;28;20027;-64
2021/10/25 01:16:44;;;;;;;4.72;1.50;;;20.00;57.50;;;;;;5059043;28;20108;-64
2021/10/25 01:19:10;;;;;;;4.18;1.70;;;20.00;57.40;;;;;;5058766;28;20507;-65
2021/10/25 01:21:36;;;;;;;2.78;1.35;;;20.00;57.50;;;;;;5059152;28;20103;-64
2021/10/25 01:24:03;;;;;;;2.95;1.40;;;20.00;57.50;;;;;;5059014;28;20024;-65
2021/10/25 01:26:29;;;;;;;4.28;1.42;;;20.00;57.60;;;;;;5058739;28;20028;-65
2021/10/25 01:28:55;;;;;;;2.85;1.17;;;20.00;57.60;;;;;;5058893;28;20017;-65
2021/10/25 01:31:23;;;;;;;3.08;1.50;;;20.00;57.60;;;;;;5058529;28;20029;-65
2021/10/25 01:33:50;;;;;;;2.92;1.15;;;20.00;57.70;;;;;;5058271;28;20126;-65
2021/10/25 01:36:17;;;;;;;4.20;1.60;;;19.90;57.50;;;;;;5058616;28;20139;-64
2021/10/25 01:38:43;;;;;;;4.47;1.70;;;19.90;57.60;;;;;;5058519;28;20527;-64
2021/10/25 01:41:09;;;;;;;4.07;1.33;;;19.90;57.80;;;;;;5058580;28;20021;-64
2021/10/25 01:43:36;;;;;;;4.68;1.40;;;19.90;57.80;;;;;;5058442;28;20468;-65
2021/10/25 01:46:05;;;;;;;3.25;1.20;;;19.90;57.70;;;;;;5057071;28;20048;-65
2021/10/25 01:48:31;;;;;;;3.28;1.63;;;19.90;57.80;;;;;;5058049;28;20507;-64
2021/10/25 01:50:57;;;;;;;4.25;1.30;;;19.90;57.80;;;;;;5058152;28;20029;-65
2021/10/25 01:53:23;;;;;;;3.10;1.23;;;19.90;57.90;;;;;;5058062;28;20078;-64
2021/10/25 01:55:54;;;;;;;4.22;1.50;;;19.90;57.80;;;;;;5058180;28;20029;-64
2021/10/25 01:58:20;;;;;;;2.90;1.38;;;19.90;57.90;;;;;;5057831;28;20049;-64
2021/10/25 02:00:46;;;;;;;4.20;1.45;;;19.90;57.80;;;;;;5057847;28;20033;-65
2021/10/25 02:03:12;;;;;;;4.65;1.50;;;19.90;58.00;;;;;;5057931;28;20024;-65
2021/10/25 02:05:38;;;;;;;3.90;1.52;;;19.80;57.80;;;;;;5058361;28;20025;-64
2021/10/25 02:08:04;;;;;;;4.22;1.73;;;19.80;57.90;;;;;;5057898;28;20024;-65
2021/10/25 02:10:31;;;;;;;4.53;1.55;;;19.80;57.90;;;;;;5058030;28;20044;-64
2021/10/25 02:12:56;;;;;;;4.50;1.30;;;19.80;57.90;;;;;;5057989;28;20440;-65
2021/10/25 02:15:22;;;;;;;4.28;1.20;;;19.80;57.90;;;;;;5056893;28;20025;-65
2021/10/25 02:17:48;;;;;;;3.53;1.35;;;19.80;57.80;;;;;;5057697;28;20032;-65
2021/10/25 02:20:14;;;;;;;3.10;1.15;;;19.80;58.00;;;;;;5057861;28;20385;-65
2021/10/25 02:22:39;;;;;;;4.13;1.30;;;19.80;58.00;;;;;;5057838;28;20027;-64
2021/10/25 02:25:06;;;;;;;4.75;1.50;;;19.70;57.90;;;;;;5057626;28;20075;-65
2021/10/25 02:27:31;;;;;;;4.38;1.30;;;19.80;57.90;;;;;;5057791;28;20021;-64
2021/10/25 02:29:58;;;;;;;3.38;1.27;;;19.80;58.00;;;;;;5057570;28;20031;-65
2021/10/25 02:32:24;;;;;;;3.17;1.20;;;19.80;58.00;;;;;;5057625;28;20032;-64
2021/10/25 02:34:50;;;;;;;1.83;1.25;;;19.70;57.90;;;;;;5056356;28;20025;-64
2021/10/25 02:37:17;;;;;;;3.95;1.35;;;19.70;58.00;;;;;;5057665;28;20032;-65
2021/10/25 02:39:43;;;;;;;2.85;1.23;;;19.70;58.00;;;;;;5057386;28;20111;-65
2021/10/25 02:42:11;;;;;;;2.55;1.00;;;19.70;58.00;;;;;;5057824;28;20013;-65
2021/10/25 02:44:37;;;;;;;2.65;1.05;;;19.70;58.10;;;;;;5057640;28;20159;-65
2021/10/25 02:47:03;;;;;;;2.30;1.20;;;19.70;58.10;;;;;;5057665;28;20086;-65
2021/10/25 02:49:30;;;;;;;4.20;1.35;;;19.70;58.10;;;;;;5057426;28;20024;-64
2021/10/25 02:51:56;;;;;;;2.78;1.00;;;19.70;58.10;;;;;;5057242;28;20440;-65
2021/10/25 02:54:24;;;;;;;2.97;1.33;;;19.70;58.20;;;;;;5057768;28;20029;-65
2021/10/25 02:56:51;;;;;;;2.53;1.17;;;19.60;58.10;;;;;;5057346;28;20039;-65
2021/10/25 02:59:17;;;;;;;3.30;1.40;;;19.70;58.20;;;;;;5057257;28;20021;-65
2021/10/25 03:01:43;;;;;;;3.05;1.20;;;19.70;58.20;;;;;;5057238;28;20166;-65
2021/10/25 03:04:09;;;;;;;2.35;1.02;;;19.60;58.10;;;;;;5057343;28;20036;-65
2021/10/25 03:06:35;;;;;;;3.60;1.08;;;19.70;58.30;;;;;;5057447;28;20024;-65
2021/10/25 03:09:02;;;;;;;2.58;1.10;;;19.60;58.20;;;;;;5057235;28;20021;-65
2021/10/25 03:11:28;;;;;;;3.83;1.08;;;19.60;58.20;;;;;;5057167;28;20477;-65
2021/10/25 03:13:54;;;;;;;2.72;1.35;;;19.60;58.20;;;;;;5057365;28;20122;-65
2021/10/25 03:16:23;;;;;;;4.90;1.50;;;19.60;58.20;;;;;;5057161;28;20480;-65
2021/10/25 03:18:49;;;;;;;2.08;1.15;;;19.60;58.20;;;;;;5057290;28;20035;-65
2021/10/25 03:21:17;;;;;;;2.35;1.10;;;19.60;58.20;;;;;;5057519;28;20468;-65
2021/10/25 03:23:44;;;;;;;2.75;0.93;;;19.60;58.20;;;;;;5057340;28;20021;-64
2021/10/25 03:26:10;;;;;;;3.17;1.08;;;19.60;58.20;;;;;;5059274;28;20055;-65
2021/10/25 03:28:35;;;;;;;2.92;1.30;;;19.60;58.30;;;;;;5060611;28;20025;-65
2021/10/25 03:31:02;;;;;;;2.63;1.10;;;19.60;58.40;;;;;;5060956;28;20021;-65
2021/10/25 03:33:30;;;;;;;3.30;1.05;;;19.50;58.40;;;;;;5060535;28;20036;-65
2021/10/25 03:35:56;;;;;;;3.85;1.48;;;19.60;58.40;;;;;;5061142;28;20028;-65
2021/10/25 03:38:22;;;;;;;3.05;1.15;;;19.50;58.30;;;;;;5060757;28;20506;-65
2021/10/25 03:40:51;;;;;;;3.38;1.15;;;19.50;58.40;;;;;;5060643;28;20035;-65
2021/10/25 03:43:19;;;;;;;3.72;1.23;;;19.50;58.40;;;;;;5060413;28;20495;-65
2021/10/25 03:45:53;;;;;;;2.47;1.00;;;19.50;58.30;;;;;;5060426;28;20063;-65
2021/10/25 03:51:16;;;;;;;3.20;1.00;;;19.50;58.60;;;;;;5064055;28;20053;-65
2021/10/25 03:53:52;;;;;;;3.13;1.17;;;19.50;58.50;;;;;;5060321;28;20032;-65
2021/10/25 03:59:21;;;;;;;2.08;1.13;;;19.50;58.60;;;;;;5069277;28;20569;-65
2021/10/25 04:28:53;;;;;;;1.90;1.00;;;19.40;58.80;;;;;;5059793;28;20534;-65
2021/10/25 04:31:19;;;;;;;2.28;0.93;;;19.40;58.80;;;;;;5059842;28;20111;-65
2021/10/25 04:33:45;;;;;;;2.80;1.25;;;19.40;58.80;;;;;;5059722;28;20025;-65
2021/10/25 04:36:11;;;;;;;3.45;1.27;;;19.40;58.80;;;;;;5059593;28;20100;-65
2021/10/25 04:38:37;;;;;;;3.17;1.33;;;19.40;58.80;;;;;;5058875;28;20040;-65
2021/10/25 04:41:03;;;;;;;2.33;1.00;;;19.40;58.80;;;;;;5059469;28;20033;-65
2021/10/25 04:43:29;;;;;;;3.53;1.10;;;19.40;58.80;;;;;;5059633;28;20036;-65
2021/10/25 04:45:55;;;;;;;3.97;1.25;;;19.40;58.80;;;;;;5059735;28;20025;-65
2021/10/25 04:48:21;;;;;;;2.95;0.98;;;19.40;58.80;;;;;;5059532;28;20052;-65
2021/10/25 04:50:46;;;;;;;2.95;1.10;;;19.40;58.80;;;;;;5059505;28;20053;-65
2021/10/25 04:53:12;;;;;;;3.45;1.05;;;19.40;58.80;;;;;;5057939;28;20031;-65
2021/10/25 04:55:38;;;;;;;2.50;1.00;;;19.40;58.80;;;;;;5059381;28;20392;-65
2021/10/25 04:58:04;;;;;;;2.63;0.90;;;19.40;58.80;;;;;;5059032;28;20061;-65
2021/10/25 05:00:30;;;;;;;2.65;1.10;;;19.30;58.70;;;;;;5058940;28;20032;-65
2021/10/25 05:02:57;;;;;;;3.08;1.10;;;19.30;58.70;;;;;;5059175;28;20412;-65
2021/10/25 05:05:23;;;;;;;3.50;1.13;;;19.30;58.70;;;;;;5058849;28;20417;-65
2021/10/25 05:07:49;;;;;;;2.80;1.10;;;19.30;58.70;;;;;;5058855;28;20017;-65
2021/10/25 05:10:14;;;;;;;5.40;1.10;;;19.30;58.80;;;;;;5058673;28;20037;-65
2021/10/25 05:12:40;;;;;;;1.98;0.80;;;19.30;58.70;;;;;;5059012;28;20035;-65
2021/10/25 05:15:06;;;;;;;3.00;1.00;;;19.30;58.70;;;;;;5058950;28;20039;-65
2021/10/25 05:17:32;;;;;;;2.47;0.93;;;19.30;58.80;;;;;;5059174;28;20021;-65
2021/10/25 05:19:58;;;;;;;1.80;1.10;;;19.30;58.70;;;;;;5058652;28;20112;-65
2021/10/25 05:22:24;;;;;;;2.38;1.00;;;19.30;58.70;;;;;;5058702;28;20017;-65
2021/10/25 05:24:50;;;;;;;3.58;1.15;;;19.30;58.70;;;;;;5058637;28;20017;-65
2021/10/25 05:27:18;;;;;;;4.20;1.30;;;19.30;58.70;;;;;;5059081;28;20014;-65
2021/10/25 05:29:44;;;;;;;3.90;1.25;;;19.30;58.70;;;;;;5058564;28;20025;-65
2021/10/25 05:32:10;;;;;;;2.40;0.90;;;19.30;58.80;;;;;;5058689;28;20028;-65
2021/10/25 05:34:36;;;;;;;4.07;1.35;;;19.30;58.70;;;;;;5058344;28;20039;-65
2021/10/25 05:37:03;;;;;;;2.75;1.10;;;19.30;58.70;;;;;;5058599;28;20100;-65
2021/10/25 05:39:29;;;;;;;3.33;1.00;;;19.30;58.90;;;;;;5058223;28;20396;-64
2021/10/25 05:41:55;;;;;;;3.35;1.20;;;19.30;58.70;;;;;;5058516;28;20028;-65
2021/10/25 05:44:21;;;;;;;2.80;1.10;;;19.30;58.90;;;;;;5058281;28;20077;-65
2021/10/25 05:46:47;;;;;;;3.75;1.13;;;19.30;58.80;;;;;;5058149;28;20389;-65
2021/10/25 05:49:13;;;;;;;3.00;1.40;;;19.30;59.00;;;;;;5058158;28;20025;-65
2021/10/25 05:51:40;;;;;;;2.45;0.90;;;19.20;58.80;;;;;;5058093;28;20058;-65
2021/10/25 05:54:06;;;;;;;3.10;1.17;;;19.20;58.90;;;;;;5058131;28;20033;-65
2021/10/25 05:56:32;;;;;;;3.40;1.10;;;19.20;58.80;;;;;;5058227;28;20029;-65
2021/10/25 05:58:59;;;;;;;2.80;1.10;;;19.20;58.90;;;;;;5057692;28;20053;-65
2021/10/25 06:01:34;;;;;;;2.78;1.15;;;19.20;58.90;;;;;;5058112;28;20033;-65
2021/10/25 06:04:10;;;;;;;4.65;1.45;;;19.20;58.90;;;;;;5057712;28;20029;-65
2021/10/25 06:06:37;;;;;;;2.97;1.00;;;19.20;59.00;;;;;;5057662;28;20025;-65
2021/10/25 06:09:04;;;;;;;1.95;0.90;;;19.20;58.90;;;;;;5057855;28;20025;-65
2021/10/25 06:11:32;;;;;;;3.22;0.95;;;19.20;60.00;;;;;;5058037;28;20029;-65
2021/10/25 06:14:01;;;;;;;5.28;1.27;;;19.20;59.10;;;;;;5057826;28;20070;-65
2021/10/25 06:16:39;;;;;;;3.00;1.20;;;19.20;59.00;;;;;;5057941;28;20021;-65
2021/10/25 06:19:10;;;;;;;3.92;0.95;;;19.20;59.10;;;;;;5057567;28;20063;-65
2021/10/25 06:21:37;;;;;;;4.15;1.30;;;19.20;59.10;;;;;;5057685;28;20043;-65
2021/10/25 06:24:03;;;;;;;3.13;1.13;;;19.20;59.10;;;;;;5057978;28;20536;-65
2021/10/25 06:26:29;;;;;;;3.33;1.17;;;19.10;59.00;;;;;;5057823;28;20071;-65
2021/10/25 06:28:56;;;;;;;5.15;1.27;;;19.20;59.00;;;;;;5057654;28;20060;-65
2021/10/25 06:31:22;;;;;;;3.22;1.15;;;19.20;59.10;;;;;;5057812;28;20021;-65
2021/10/25 06:33:49;;;;;;;2.80;1.05;;;19.20;59.10;;;;;;5058031;28;20029;-65
2021/10/25 06:36:18;;;;;;;2.63;0.98;;;19.20;59.10;;;;;;5057511;28;20070;-65
2021/10/25 06:41:20;;;;;;;1.70;1.10;;;19.20;59.20;;;;;;5057702;28;20505;-65
2021/10/25 06:43:47;;;;;;;2.83;1.25;;;19.10;59.10;;;;;;5057606;28;20017;-65
2021/10/25 06:46:13;;;;;;;4.50;1.40;;;19.10;59.10;;;;;;5058297;28;20032;-65
2021/10/25 06:48:39;;;;;;;3.65;1.10;;;19.20;59.20;;;;;;5057601;28;20461;-65
2021/10/25 06:51:05;;;;;;;3.47;1.30;;;19.10;59.20;;;;;;5057431;28;20150;-65
2021/10/25 06:53:31;;;;;;;3.80;1.20;;;19.10;59.10;;;;;;5057386;28;20155;-65
2021/10/25 06:55:58;;;;;;;4.50;1.27;;;19.10;59.20;;;;;;5057740;28;20764;-65
2021/10/25 06:58:24;;;;;;;2.42;0.98;;;19.10;59.20;;;;;;5057055;28;20052;-65
2021/10/25 07:00:50;;;;;;;4.03;1.30;;;19.10;59.10;;;;;;5059001;28;20071;-65
2021/10/25 07:03:16;;;;;;;3.20;1.33;;;19.10;59.30;;;;;;5061322;28;20077;-65
2021/10/25 07:05:43;;;;;;;3.13;1.45;;;19.10;59.20;;;;;;5061506;28;20025;-65
2021/10/25 07:08:10;;;;;;;5.18;1.30;;;19.10;59.20;;;;;;5061216;28;20028;-65
2021/10/25 07:10:37;;;;;;;3.00;0.95;;;19.10;59.30;;;;;;5061398;28;20025;-64
2021/10/25 07:13:04;;;;;;;3.67;1.33;;;19.10;59.40;;;;;;5061286;28;20025;-65
2021/10/25 07:15:32;;;;;;;5.13;1.50;;;19.10;59.30;;;;;;5061109;28;20017;-65
2021/10/25 07:18:13;;;;;;;2.88;1.40;;;19.10;59.30;;;;;;5061243;28;20035;-65
2021/10/25 08:14:08;;;;;;;2.28;1.23;;;19.00;59.70;;;;;;5059741;28;20052;-64
2021/10/25 08:16:48;;;;;;;4.57;1.50;;;19.00;59.70;;;;;;5059178;28;20044;-64
2021/10/25 08:19:25;;;;;;;3.88;1.55;;;19.00;59.60;;;;;;5060281;28;20086;-64
2021/10/25 08:22:20;;;;;;;3.30;1.33;;;19.00;59.60;;;;;;5059966;28;20029;-64
2021/10/25 08:24:49;;;;;;;4.20;1.50;;;19.10;59.60;;;;;;5059386;28;20040;-64
2021/10/25 08:27:17;;;;;;;5.57;1.50;;;19.00;59.70;;;;;;5059988;28;20021;-64
2021/10/25 08:29:46;;;;;;;6.20;1.52;;;19.00;60.00;;;;;;5058333;28;20142;-63
2021/10/25 08:35:03;;;;;;;7.25;1.30;;;19.00;60.00;;;;;;5059485;28;20041;-64
2021/10/25 08:40:02;;;;;;;6.25;1.80;;;19.00;60.10;;;;;;5059526;28;20029;-64
2021/10/25 08:42:31;;;;;;;9.55;1.58;;;19.10;60.10;;;;;;5057115;28;20045;-63
2021/10/25 08:45:08;;;;;;;6.90;1.92;;;19.00;60.20;;;;;;5056176;28;20104;-63
2021/10/25 08:47:46;;;;;;;6.32;1.60;;;19.00;60.20;;;;;;5058875;28;20053;-63
2021/10/25 08:50:22;;;;;;;6.32;1.50;;;19.00;60.10;;;;;;5059215;28;20032;-64
2021/10/25 08:52:49;;;;;;;4.35;1.50;;;19.00;60.10;;;;;;5059226;28;20028;-64
2021/10/25 08:55:17;;;;;;;4.75;1.30;;;19.00;60.20;;;;;;5059153;28;20024;-64
2021/10/25 08:57:48;;;;;;;5.18;1.63;;;19.00;60.20;;;;;;5058138;28;20052;-63
2021/10/25 09:00:16;;;;;;;6.18;1.73;;;19.00;60.10;;;;;;5056925;28;20519;-63
2021/10/25 09:02:44;;;;;;;8.05;1.65;;;19.00;60.30;;;;;;5058576;28;20388;-62
2021/10/25 09:05:20;;;;;;;3.88;1.55;;;19.00;60.10;;;;;;5058695;28;20476;-63
2021/10/25 09:07:47;;;;;;;6.68;1.55;;;19.00;60.20;;;;;;5057321;28;20021;-63
2021/10/25 09:10:19;;;;;;;6.03;1.50;;;19.00;60.20;;;;;;5058645;28;20036;-63
2021/10/25 09:12:52;;;;;;;8.52;1.40;;;19.00;60.20;;;;;;5058733;28;20048;-63
2021/10/25 09:15:18;;;;;;;4.28;1.40;;;19.00;60.10;;;;;;5058958;28;20032;-63
2021/10/25 09:17:44;;;;;;;6.05;1.75;;;19.00;60.20;;;;;;5058823;28;20029;-63
2021/10/25 09:20:10;;;;;;;5.80;1.42;;;19.00;60.20;;;;;;5058722;28;20029;-63
2021/10/25 09:22:36;;;;;;;4.63;1.38;;;19.00;60.20;;;;;;5058911;28;20100;-64
2021/10/25 09:25:02;;;;;;;5.47;1.75;;;19.00;60.20;;;;;;5058320;28;20098;-63
2021/10/25 09:27:34;;;;;;;3.92;1.38;;;19.00;60.20;;;;;;5058960;28;20024;-64
2021/10/25 09:30:13;;;;;;;4.53;1.45;;;19.00;60.20;;;;;;5058836;28;20017;-64
2021/10/25 09:32:42;;;;;;;6.63;1.65;;;19.00;60.20;;;;;;5058723;28;20044;-63
2021/10/25 09:35:17;;;;;;;4.63;1.63;;;19.00;60.20;;;;;;5058554;28;20021;-64
2021/10/25 09:37:52;;;;;;;6.53;1.48;;;19.00;60.30;;;;;;5058613;28;20036;-63
2021/10/25 09:40:23;;;;;;;2.83;1.20;;;19.00;60.20;;;;;;5058362;28;20033;-63
2021/10/25 09:45:43;;;;;;;3.88;1.35;;;19.00;60.10;;;;;;5058080;28;20017;-63
2021/10/25 09:50:54;;;;;;;4.38;1.38;;;19.00;60.20;;;;;;5058173;28;20029;-63
2021/10/25 09:53:33;;;;;;;3.97;1.33;;;19.00;60.10;;;;;;5057984;28;20400;-63
2021/10/25 09:55:59;;;;;;;5.95;1.70;;;19.00;60.10;;;;;;5057262;28;20075;-64
2021/10/25 09:58:27;;;;;;;4.78;1.70;;;19.00;60.10;;;;;;5057894;28;20131;-63
2021/10/25 10:00:54;;;;;;;2.13;1.05;;;19.00;60.10;;;;;;5057804;28;20439;-64
2021/10/25 10:03:20;;;;;;;4.57;1.40;;;19.00;60.10;;;;;;5058154;28;20032;-64
2021/10/25 10:05:49;;;;;;;5.70;1.70;;;19.00;60.00;;;;;;5057919;28;20024;-64
2021/10/25 10:08:15;;;;;;;4.30;1.55;;;19.00;60.10;;;;;;5058212;28;20428;-64
2021/10/25 10:10:42;;;;;;;4.32;1.50;;;19.00;60.10;;;;;;5057878;28;20033;-64
2021/10/25 10:13:12;;;;;;;3.72;1.33;;;19.00;60.10;;;;;;5058179;28;20057;-64
2021/10/25 10:15:41;;;;;;;3.17;1.40;;;19.00;60.10;;;;;;5058723;28;20476;-64
2021/10/25 10:18:17;;;;;;;5.45;1.40;;;19.00;60.10;;;;;;5057939;28;20025;-64
2021/10/25 10:20:49;;;;;;;5.95;1.70;;;19.00;60.10;;;;;;5057841;28;20408;-63
2021/10/25 10:23:18;;;;;;;4.05;1.40;;;19.00;60.10;;;;;;5057515;28;20028;-64
2021/10/25 10:25:59;;;;;;;6.18;1.60;;;19.00;60.00;;;;;;5057640;28;20021;-64
2021/10/25 10:28:39;;;;;;;5.65;1.20;;;19.10;60.00;;;;;;5057429;28;20051;-64
2021/10/25 10:31:12;;;;;;;6.88;1.73;;;19.10;60.00;;;;;;5056131;28;20029;-64
2021/10/25 10:33:40;;;;;;;5.63;1.65;;;19.10;60.10;;;;;;5057578;28;20024;-64
2021/10/25 10:36:11;;;;;;;5.03;1.63;;;19.10;60.00;;;;;;5056789;28;20504;-63
2021/10/25 10:39:05;;;;;;;6.75;1.35;;;19.10;60.10;;;;;;5057847;28;20021;-64
2021/10/25 10:41:56;;;;;;;4.57;1.48;;;19.10;60.00;;;;;;5057151;28;20056;-66
2021/10/25 10:44:27;;;;;;;8.77;2.38;;;19.10;60.00;;;;;;5056895;28;20033;-66
2021/10/25 10:46:56;;;;;;;10.82;2.20;;;19.10;61.50;;;;;;5057503;28;20017;-66
2021/10/25 10:49:32;;;;;;;8.55;1.80;;;19.10;61.80;;;;;;5056152;28;20032;-66
2021/10/25 10:55:12;;;;;;;;;;;19.20;61.50;;;;;;5058244;28;20431;-64
2021/10/25 11:00:27;;;;;;;7.85;2.13;;;19.20;60.70;;;;;;5057651;28;20037;-64
2021/10/25 11:02:57;;;;;;;9.20;1.65;;;19.20;60.70;;;;;;5056910;28;20033;-64
2021/10/25 11:05:42;;;;;;;6.50;1.50;;;19.20;60.80;;;;;;5057445;28;20049;-65
2021/10/25 11:08:18;;;;;;;4.78;1.65;;;19.30;60.60;;;;;;5057409;28;20496;-65
2021/10/25 11:10:46;;;;;;;7.38;1.70;;;19.30;60.70;;;;;;5057428;28;20029;-65
2021/10/25 11:13:17;;;;;;;7.47;1.40;;;19.30;60.70;;;;;;5057171;28;20481;-65
2021/10/25 11:18:49;;;;;;;8.27;1.77;;;19.30;60.50;;;;;;5066252;28;20037;-65
2021/10/25 11:21:19;;;;;;;7.82;1.73;;;19.30;60.40;;;;;;5057208;28;20052;-65
2021/10/25 11:23:46;;;;;;;5.45;1.48;;;19.30;60.30;;;;;;5056941;28;20530;-65
2021/10/25 11:26:19;;;;;;;5.93;1.60;;;19.30;60.40;;;;;;5057050;28;20040;-65
2021/10/25 11:28:58;;;;;;;4.45;1.38;;;19.30;60.30;;;;;;5057028;28;20029;-65
2021/10/25 11:31:26;;;;;;;6.53;1.50;;;19.30;60.30;;;;;;5057106;28;20029;-65
2021/10/25 11:33:52;;;;;;;6.80;1.67;;;19.30;60.30;;;;;;5057254;28;20039;-65
2021/10/25 11:36:26;;;;;;;4.40;1.65;;;19.30;60.30;;;;;;5055575;28;20056;-65
2021/10/25 11:38:51;;;;;;;6.72;1.95;;;19.30;60.40;;;;;;5057047;28;20029;-65
2021/10/25 11:41:17;;;;;;;7.95;2.65;;;19.30;60.40;;;;;;5056868;28;20083;-65
2021/10/25 11:43:43;;;;;;;11.25;4.65;;;19.30;60.40;;;;;;5056986;28;20025;-65
2021/10/25 11:46:22;;;;;;;13.93;9.63;;;19.40;60.50;;;;;;5057329;28;20100;-65
2021/10/25 11:48:59;;;;;;;12.40;8.20;;;19.40;60.60;;;;;;5060682;28;20055;-64
2021/10/25 11:51:26;;;;;;;18.02;13.07;;;19.40;60.60;;;;;;5060555;28;20021;-65
2021/10/25 11:53:58;;;;;;;16.63;12.18;;;19.40;60.90;;;;;;5060333;28;20033;-64
2021/10/25 11:56:29;;;;;;;18.20;12.38;;;19.40;60.80;;;;;;5060566;28;20025;-66
2021/10/25 11:58:55;;;;;;;14.07;11.60;;;19.40;60.70;;;;;;5060675;28;20080;-66
2021/10/25 12:01:24;;;;;;;14.90;12.27;;;19.40;60.80;;;;;;5058708;28;20033;-67
2021/10/25 12:03:50;;;;;;;17.55;13.20;;;19.40;60.80;;;;;;5060222;28;20495;-67
2021/10/25 12:06:22;;;;;;;14.57;11.85;;;19.40;60.80;;;;;;5060500;28;20384;-67
2021/10/25 12:09:00;;;;;;;18.40;12.52;;;19.50;60.90;;;;;;5060170;28;20033;-67
2021/10/25 12:11:40;;;;;;;17.38;11.93;;;19.50;60.80;;;;;;5060160;28;20053;-67
2021/10/25 12:14:06;;;;;;;13.07;11.35;;;19.50;60.90;;;;;;5060381;28;20414;-67
2021/10/25 12:16:32;;;;;;;15.65;11.00;;;19.50;60.90;;;;;;5060187;28;20039;-67
2021/10/25 12:18:59;;;;;;;13.13;10.68;;;19.50;60.80;;;;;;5060078;28;20049;-68
2021/10/25 12:21:35;;;;;;;15.65;10.63;;;19.50;60.90;;;;;;5060029;28;20100;-68
2021/10/25 12:24:08;;;;;;;14.27;10.13;;;19.50;60.80;;;;;;5059935;28;20033;-69
2021/10/25 12:26:35;;;;;;;14.13;9.95;;;19.60;60.80;;;;;;5059908;28;20143;-69
2021/10/25 12:29:11;;;;;;;13.10;9.60;;;19.60;60.90;;;;;;5059896;28;20507;-69
2021/10/25 12:31:36;;;;;;;14.20;9.38;;;19.60;60.80;;;;;;5059743;28;20025;-68
2021/10/25 12:34:03;;;;;;;12.15;9.23;;;19.60;60.80;;;;;;5059909;28;20437;-68
2021/10/25 12:36:36;;;;;;;12.93;8.63;;;19.60;60.80;;;;;;5059857;28;20107;-68
2021/10/25 12:39:13;;;;;;;13.82;9.43;;;19.60;60.80;;;;;;5059939;28;20100;-68
2021/10/25 12:41:59;;;;;;;12.27;8.98;;;19.60;60.80;;;;;;5059631;28;20021;-68
2021/10/25 12:44:36;;;;;;;11.00;7.97;;;19.60;60.70;;;;;;5059589;28;20481;-68
2021/10/25 12:47:09;;;;;;;10.60;7.32;;;19.60;60.70;;;;;;5059485;28;20099;-68
2021/10/25 12:49:36;;;;;;;12.37;7.13;;;19.60;60.70;;;;;;5059182;28;20025;-67
2021/10/25 12:52:06;;;;;;;11.38;7.13;;;19.60;60.70;;;;;;5059501;28;20274;-68
2021/10/25 12:54:39;;;;;;;11.07;6.75;;;19.60;60.70;;;;;;5059149;28;20492;-68
2021/10/25 12:57:24;;;;;;;12.15;6.50;;;19.60;60.60;;;;;;5059246;28;20037;-67
2021/10/25 13:00:09;;;;;;;11.32;6.38;;;19.60;60.70;;;;;;5058569;28;20075;-68
2021/10/25 13:02:52;;;;;;;10.95;6.45;;;19.60;60.60;;;;;;5059499;28;20366;-68
2021/10/25 13:05:31;;;;;;;10.88;5.85;;;19.60;60.60;;;;;;5059241;28;20024;-68
2021/10/25 13:08:01;;;;;;;10.52;5.70;;;19.60;60.60;;;;;;5059214;28;20028;-63
2021/10/25 13:10:32;;;;;;;11.25;5.15;;;19.70;61.10;;;;;;5058433;28;20104;-67
2021/10/25 13:13:01;;;;;;;9.05;5.05;;;19.60;60.60;;;;;;5058690;28;20029;-67
2021/10/25 13:15:27;;;;;;;8.13;5.18;;;19.60;61.00;;;;;;5058453;28;20049;-67
2021/10/25 13:17:58;;;;;;;9.80;4.68;;;19.60;60.50;;;;;;5058445;28;20044;-67
2021/10/25 13:20:25;;;;;;;8.10;4.45;;;19.60;60.50;;;;;;5058530;28;20424;-67
2021/10/25 13:22:54;;;;;;;8.63;4.18;;;19.60;60.50;;;;;;5058615;28;20047;-67
2021/10/25 13:25:20;;;;;;;9.73;4.60;;;19.60;60.50;;;;;;5058511;28;20021;-67
2021/10/25 13:27:49;;;;;;;8.10;3.80;;;19.60;60.50;;;;;;5057004;28;20021;-67
2021/10/25 13:30:17;;;;;;;8.05;4.53;;;19.60;60.50;;;;;;5058180;28;20100;-69
2021/10/25 13:32:43;;;;;;;8.82;3.88;;;19.60;60.40;;;;;;5058156;28;20036;-68
2021/10/25 13:35:10;;;;;;;7.55;3.40;;;19.60;60.50;;;;;;5058365;28;20029;-69
2021/10/25 13:37:37;;;;;;;9.15;3.42;;;19.60;60.50;;;;;;5058282;28;20146;-68
2021/10/25 13:40:05;;;;;;;7.78;3.72;;;19.60;60.50;;;;;;5058104;28;20024;-69
2021/10/25 13:42:31;;;;;;;8.52;3.92;;;19.60;60.50;;;;;;5058074;28;20029;-68
2021/10/25 13:44:57;;;;;;;7.70;3.63;;;19.60;60.40;;;;;;5058113;28;20017;-68
2021/10/25 13:47:23;;;;;;;7.45;3.42;;;19.70;60.50;;;;;;5058079;28;20074;-68
2021/10/25 13:49:49;;;;;;;9.40;3.45;;;19.60;60.40;;;;;;5056578;28;20025;-68
2021/10/25 13:52:15;;;;;;;8.23;3.60;;;19.60;60.40;;;;;;5056423;28;20032;-68
2021/10/25 13:54:41;;;;;;;7.55;3.28;;;19.60;60.40;;;;;;5057781;28;20136;-68
2021/10/25 13:57:08;;;;;;;6.10;3.00;;;19.60;60.40;;;;;;5056163;28;20037;-70
2021/10/25 13:59:35;;;;;;;8.13;3.25;;;19.60;60.40;;;;;;5057639;28;20055;-70
2021/10/25 14:02:06;;;;;;;6.50;3.03;;;19.60;60.40;;;;;;5057767;28;20119;-70
2021/10/25 14:04:32;;;;;;;9.43;2.92;;;19.60;60.40;;;;;;5057635;28;20013;-69
2021/10/25 14:07:00;;;;;;;8.15;2.97;;;19.60;60.40;;;;;;5057428;28;20404;-69
2021/10/25 14:09:26;;;;;;;5.80;2.60;;;19.60;60.40;;;;;;5057545;28;20092;-68
2021/10/25 14:11:56;;;;;;;7.63;3.05;;;19.60;60.40;;;;;;5057453;28;20060;-68
2021/10/25 14:14:26;;;;;;;6.55;3.00;;;19.60;60.40;;;;;;5057252;28;20029;-68
2021/10/25 14:16:52;;;;;;;5.55;2.50;;;19.60;60.40;;;;;;5057407;28;20025;-68
2021/10/25 14:19:21;;;;;;;7.72;2.90;;;19.60;60.40;;;;;;5057210;28;20627;-68
2021/10/25 14:21:47;;;;;;;5.80;2.58;;;19.60;60.30;;;;;;5057522;28;20025;-67
2021/10/25 14:24:13;;;;;;;7.68;2.47;;;19.60;60.40;;;;;;5057808;28;20021;-68
2021/10/25 14:26:39;;;;;;;7.43;2.42;;;19.60;60.30;;;;;;5057482;28;20029;-68
2021/10/25 14:29:06;;;;;;;4.97;2.10;;;19.60;60.30;;;;;;5057238;28;20048;-68
2021/10/25 14:31:33;;;;;;;6.53;2.28;;;19.60;60.30;;;;;;5057740;28;20044;-68
2021/10/25 14:34:00;;;;;;;7.40;2.47;;;19.60;60.30;;;;;;5058840;28;20017;-68
2021/10/25 14:36:26;;;;;;;5.45;2.10;;;19.60;60.30;;;;;;5058050;28;20112;-68
2021/10/25 14:39:06;;;;;;;4.93;2.28;;;19.60;60.30;;;;;;5057476;28;20021;-68
2021/10/25 14:44:21;;;;;;;6.13;2.30;;;19.60;60.30;;;;;;5057263;28;20024;-68